TimeEDT,TemperatureF,Dew PointF,Humidity,Sea Level PressureIn,VisibilityMPH,Wind Direction,Wind SpeedMPH,Gust SpeedMPH,PrecipitationIn,Events,Conditions,WindDirDegrees,DateUTC
12:16 AM,61.2,59.9,96,30.05,2.5,SSE,3.5,-,N/A,,Clear,160,2013-06-23 04:16:00
12:35 AM,61.5,60.1,95,30.04,2.5,SSE,4.6,-,N/A,,Clear,150,2013-06-23 04:35:00
12:55 AM,61.7,60.3,95,30.03,2.5,SSE,4.6,-,N/A,,Clear,150,2013-06-23 04:55:00
1:16 AM,61.0,59.7,96,30.02,2.0,SSE,3.5,-,N/A,,Clear,150,2013-06-23 05:16:00
1:35 AM,61.7,60.4,96,30.01,2.5,SE,3.5,-,N/A,,Scattered Clouds,130,2013-06-23 05:35:00
1:55 AM,61.9,60.6,96,30.00,3.0,SE,4.6,-,N/A,,Mostly Cloudy,140,2013-06-23 05:55:00
2:16 AM,62.6,61.0,94,30.00,3.0,SSE,6.9,-,N/A,,Overcast,160,2013-06-23 06:16:00
2:35 AM,62.2,60.8,95,29.99,3.0,SE,5.8,-,N/A,,Scattered Clouds,140,2013-06-23 06:35:00
2:55 AM,62.1,60.8,96,29.99,3.0,SSE,5.8,-,N/A,,Clear,150,2013-06-23 06:55:00
3:16 AM,61.9,60.4,95,30.00,3.0,SSE,3.5,-,N/A,,Clear,160,2013-06-23 07:16:00
3:35 AM,61.3,59.9,95,29.99,2.0,SSE,3.5,-,N/A,,Mostly Cloudy,150,2013-06-23 07:35:00
3:56 AM,61.7,60.4,96,30.00,2.5,Calm,Calm,-,N/A,,Overcast,0,2013-06-23 07:56:00
4:15 AM,61.7,60.4,96,29.99,2.5,Calm,Calm,-,N/A,,Mostly Cloudy,0,2013-06-23 08:15:00
4:36 AM,61.2,59.9,96,29.99,1.8,Calm,Calm,-,N/A,,Overcast,0,2013-06-23 08:36:00
4:55 AM,60.8,59.5,96,29.98,1.5,East,3.5,-,N/A,,Mostly Cloudy,100,2013-06-23 08:55:00
5:15 AM,61.2,60.1,96,29.95,2.0,East,6.9,-,N/A,,Clear,80,2013-06-23 09:15:00
5:35 AM,61.7,60.4,96,29.95,2.5,ESE,4.6,-,N/A,,Scattered Clouds,110,2013-06-23 09:35:00
5:55 AM,61.7,60.3,95,29.96,1.8,Calm,Calm,-,N/A,,Scattered Clouds,0,2013-06-23 09:55:00
6:16 AM,62.4,61.0,95,29.96,2.5,SE,4.6,-,N/A,,Clear,140,2013-06-23 10:16:00
6:35 AM,62.8,61.3,95,29.95,3.0,ESE,4.6,-,N/A,,Clear,110,2013-06-23 10:35:00
6:55 AM,63.1,61.7,95,29.95,3.0,ESE,5.8,-,N/A,,Clear,120,2013-06-23 10:55:00
7:16 AM,63.9,62.2,94,29.94,3.0,Calm,Calm,-,N/A,,Clear,0,2013-06-23 11:16:00
7:35 AM,64.8,62.6,93,29.95,4.0,ESE,3.5,-,N/A,,Clear,120,2013-06-23 11:35:00
7:56 AM,65.8,62.8,90,29.95,5.0,Calm,Calm,-,N/A,,Clear,0,2013-06-23 11:56:00
8:15 AM,66.9,63.1,88,29.95,5.0,Calm,Calm,-,N/A,,Clear,0,2013-06-23 12:15:00
8:36 AM,67.6,63.0,85,29.95,7.0,Calm,Calm,-,N/A,,Clear,0,2013-06-23 12:36:00
8:55 AM,68.2,63.3,84,29.95,7.0,Calm,Calm,-,N/A,,Mostly Cloudy,0,2013-06-23 12:55:00
9:16 AM,63.5,60.4,90,29.97,5.0,North,3.5,-,N/A,,Overcast,350,2013-06-23 13:16:00
9:35 AM,62.6,59.9,91,29.97,5.0,NNE,3.5,-,N/A,,Overcast,30,2013-06-23 13:35:00
9:55 AM,61.9,59.2,91,29.97,5.0,NE,6.9,-,N/A,,Overcast,50,2013-06-23 13:55:00
10:16 AM,61.0,58.5,91,29.98,5.0,North,3.5,-,N/A,,Overcast,10,2013-06-23 14:16:00
10:35 AM,60.6,58.1,91,29.98,4.0,NNE,3.5,-,N/A,,Overcast,30,2013-06-23 14:35:00
10:55 AM,61.0,58.1,90,29.98,7.0,ENE,4.6,-,N/A,,Overcast,70,2013-06-23 14:55:00
11:15 AM,62.8,59.2,88,29.97,10.0,East,3.5,-,N/A,,Overcast,80,2013-06-23 15:15:00
11:35 AM,64.0,59.7,86,29.97,10.0,Calm,Calm,-,N/A,,Overcast,0,2013-06-23 15:35:00
11:56 AM,65.7,60.6,84,29.98,10.0,NNW,3.5,-,N/A,,Overcast,340,2013-06-23 15:56:00
12:15 PM,68.0,61.7,80,29.97,10.0,Calm,Calm,-,N/A,,Overcast,0,2013-06-23 16:15:00
12:36 PM,70.0,63.3,79,29.96,10.0,Calm,Calm,-,N/A,,Overcast,0,2013-06-23 16:36:00
12:55 PM,75.6,65.1,70,29.97,10.0,SW,9.2,-,N/A,,Overcast,230,2013-06-23 16:55:00
1:15 PM,77.7,65.5,66,29.96,10.0,WSW,10.4,-,N/A,,Mostly Cloudy,240,2013-06-23 17:15:00
1:35 PM,80.1,65.1,60,29.96,10.0,WSW,10.4,-,N/A,,Mostly Cloudy,240,2013-06-23 17:35:00
1:56 PM,81.5,64.4,56,29.96,10.0,WSW,11.5,17.3,N/A,,Scattered Clouds,240,2013-06-23 17:56:00
2:14 PM,80.8,64.4,57,29.96,10.0,WSW,8.1,16.1,N/A,,Scattered Clouds,240,2013-06-23 18:14:00
2:36 PM,78.1,63.1,60,29.95,10.0,West,10.4,-,N/A,,Clear,260,2013-06-23 18:36:00
2:55 PM,77.9,63.5,61,29.95,10.0,NW,3.5,-,N/A,,Scattered Clouds,320,2013-06-23 18:55:00
3:15 PM,77.9,63.1,60,29.95,10.0,ENE,8.1,-,N/A,,Clear,70,2013-06-23 19:15:00
3:36 PM,72.7,64.2,75,29.95,10.0,ENE,3.5,-,N/A,,Clear,60,2013-06-23 19:36:00
3:55 PM,75.9,65.3,70,29.94,10.0,SSE,6.9,-,N/A,,Clear,150,2013-06-23 19:55:00
4:16 PM,82.9,64.6,54,29.92,10.0,SW,11.5,-,N/A,,Clear,220,2013-06-23 20:16:00
4:35 PM,83.7,64.2,52,29.92,10.0,WSW,10.4,-,N/A,,Clear,240,2013-06-23 20:35:00
4:56 PM,84.0,63.1,49,29.90,10.0,SSW,8.1,-,N/A,,Clear,210,2013-06-23 20:56:00
5:15 PM,83.7,63.0,50,29.90,10.0,SSW,6.9,-,N/A,,Clear,210,2013-06-23 21:15:00
5:35 PM,85.3,62.2,46,29.89,10.0,SSW,11.5,-,N/A,,Clear,200,2013-06-23 21:35:00
5:55 PM,85.6,63.1,47,29.88,10.0,South,9.2,-,N/A,,Clear,190,2013-06-23 21:55:00
6:16 PM,85.5,62.8,46,29.87,10.0,SSW,8.1,-,N/A,,Clear,200,2013-06-23 22:16:00
6:35 PM,85.5,62.1,45,29.87,10.0,SSW,9.2,-,N/A,,Clear,200,2013-06-23 22:35:00
6:55 PM,85.6,62.4,46,29.86,10.0,SSW,11.5,-,N/A,,Clear,210,2013-06-23 22:55:00
7:15 PM,85.6,63.1,47,29.86,10.0,SSW,5.8,-,N/A,,Clear,200,2013-06-23 23:15:00
7:35 PM,85.3,63.7,48,29.86,10.0,South,9.2,-,N/A,,Clear,190,2013-06-23 23:35:00
7:56 PM,85.1,64.8,50,29.87,10.0,SSW,5.8,-,N/A,,Clear,200,2013-06-23 23:56:00
8:15 PM,80.1,64.2,58,29.87,10.0,NNE,3.5,-,N/A,,Clear,30,2013-06-24 00:15:00
8:35 PM,73.2,63.9,72,29.88,10.0,Calm,Calm,-,N/A,,Clear,0,2013-06-24 00:35:00
8:56 PM,68.5,61.5,78,29.88,10.0,NNW,3.5,-,N/A,,Clear,340,2013-06-24 00:56:00
9:15 PM,67.3,61.2,81,29.89,10.0,Calm,Calm,-,N/A,,Clear,0,2013-06-24 01:15:00
9:35 PM,66.9,61.0,81,29.90,10.0,Calm,Calm,-,N/A,,Clear,0,2013-06-24 01:35:00
9:56 PM,66.4,61.7,85,29.91,10.0,Calm,Calm,-,N/A,,Scattered Clouds,0,2013-06-24 01:56:00
10:15 PM,66.2,61.9,86,29.91,10.0,Calm,Calm,-,N/A,,Clear,0,2013-06-24 02:15:00
10:36 PM,66.4,61.9,85,29.91,10.0,Calm,Calm,-,N/A,,Clear,0,2013-06-24 02:36:00
10:55 PM,65.3,61.9,89,29.91,10.0,Calm,Calm,-,N/A,,Clear,0,2013-06-24 02:55:00
11:15 PM,65.5,61.9,88,29.91,10.0,Calm,Calm,-,N/A,,Clear,0,2013-06-24 03:15:00
11:36 PM,64.9,61.9,90,29.90,7.0,Calm,Calm,-,N/A,,Clear,0,2013-06-24 03:36:00
11:55 PM,64.2,61.0,89,29.90,7.0,East,3.5,-,N/A,,Clear,80,2013-06-24 03:55:00